Time;durP1;ratioP1;P1;durP2;ratioP2;P2;SDS_P1;SDS_P2;PMS_P1;PMS_P2;Temp;Humidity;BMP_temperature;BMP_pressure;BME280_temperature;BME280_humidity;BME280_pressure;Samples;Min_cycle;Max_cycle;Signal;HPM_P1;HPM_P2
2021/01/11 00:00:12;;;;;;;79.47;36.65;;;5.40;99.90;;;;;;5054533;28;20044;-72
2021/01/11 00:02:38;;;;;;;73.50;35.90;;;5.40;99.90;;;;;;5065216;28;20147;-72
2021/01/11 00:05:06;;;;;;;76.88;38.60;;;5.40;99.90;;;;;;5065348;28;20125;-72
2021/01/11 00:07:32;;;;;;;78.47;37.70;;;5.40;99.90;;;;;;5065796;28;20040;-71
2021/01/11 00:09:58;;;;;;;72.03;36.50;;;5.40;99.90;;;;;;5064711;28;20045;-72
2021/01/11 00:12:24;;;;;;;67.53;35.47;;;5.40;99.90;;;;;;5049253;28;20076;-72
2021/01/11 00:14:50;;;;;;;74.07;37.00;;;5.40;99.90;;;;;;5055398;28;20079;-72
2021/01/11 00:17:15;;;;;;;67.68;36.67;;;5.30;99.90;;;;;;5064424;28;20044;-71
2021/01/11 00:19:41;;;;;;;68.75;37.63;;;5.30;99.90;;;;;;5065575;28;20044;-71
2021/01/11 00:22:06;;;;;;;74.43;38.80;;;5.40;99.90;;;;;;5064986;28;20048;-71
2021/01/11 00:24:33;;;;;;;57.50;36.58;;;5.30;99.90;;;;;;5057322;28;20111;-72
2021/01/11 00:26:59;;;;;;;62.67;37.42;;;5.30;99.90;;;;;;5051749;28;20359;-72
2021/01/11 00:29:25;;;;;;;59.42;33.53;;;5.30;99.90;;;;;;5053472;28;20041;-73
2021/01/11 00:31:51;;;;;;;59.33;35.45;;;5.40;99.90;;;;;;5052234;28;20375;-72
2021/01/11 00:34:17;;;;;;;60.10;33.97;;;5.40;99.90;;;;;;5052977;28;20048;-72
2021/01/11 00:36:47;;;;;;;59.80;36.33;;;5.40;99.90;;;;;;5053696;28;20121;-71
2021/01/11 00:39:13;;;;;;;59.53;35.38;;;5.40;99.90;;;;;;5051752;28;20765;-72
2021/01/11 00:41:39;;;;;;;52.85;34.10;;;5.40;99.90;;;;;;5052805;28;20044;-73
2021/01/11 00:44:05;;;;;;;58.25;32.85;;;5.40;99.90;;;;;;5048834;28;20332;-73
2021/01/11 00:46:31;;;;;;;60.80;32.78;;;5.40;99.90;;;;;;5055721;28;20460;-72
2021/01/11 00:48:57;;;;;;;52.90;32.72;;;5.40;99.90;;;;;;5048599;28;20040;-71
2021/01/11 00:51:24;;;;;;;60.05;34.30;;;5.40;99.90;;;;;;5057422;28;20037;-71
2021/01/11 00:53:50;;;;;;;67.78;38.30;;;5.40;99.90;;;;;;5052744;28;20048;-71
2021/01/11 00:56:17;;;;;;;58.08;33.08;;;5.40;99.90;;;;;;5064727;28;20397;-72
2021/01/11 00:58:43;;;;;;;56.17;35.65;;;5.40;99.90;;;;;;5064958;28;20272;-73
2021/01/11 01:01:10;;;;;;;53.95;34.35;;;5.40;99.90;;;;;;5063033;28;20037;-72
2021/01/11 01:03:39;;;;;;;57.65;35.03;;;5.40;99.90;;;;;;5064403;28;20036;-72
2021/01/11 01:06:12;;;;;;;64.53;36.35;;;5.40;99.90;;;;;;5064653;28;20090;-72
2021/01/11 01:08:37;;;;;;;56.35;34.20;;;5.40;99.90;;;;;;5063278;28;20508;-72
2021/01/11 01:11:03;;;;;;;61.70;40.28;;;5.40;99.90;;;;;;5059519;28;20482;-70
2021/01/11 01:13:29;;;;;;;68.22;35.88;;;5.40;99.90;;;;;;5027809;28;20171;-71
2021/01/11 01:15:55;;;;;;;64.50;34.58;;;5.40;99.90;;;;;;5060568;28;20045;-71
2021/01/11 01:18:21;;;;;;;60.25;38.45;;;5.50;99.90;;;;;;5064066;28;20486;-71
2021/01/11 01:20:47;;;;;;;63.42;35.22;;;5.50;99.90;;;;;;5064184;28;20044;-72
2021/01/11 01:23:12;;;;;;;60.72;38.95;;;5.40;99.90;;;;;;5064469;28;20044;-72
2021/01/11 01:25:38;;;;;;;66.47;38.30;;;5.40;99.90;;;;;;5062810;28;20444;-72
2021/01/11 01:28:04;;;;;;;62.67;37.70;;;5.30;99.90;;;;;;5064203;28;20079;-72
2021/01/11 01:30:29;;;;;;;73.07;40.78;;;5.30;99.90;;;;;;5046546;28;20045;-71
2021/01/11 01:32:56;;;;;;;73.07;39.10;;;5.20;99.90;;;;;;5063461;28;20049;-70
2021/01/11 01:35:21;;;;;;;62.10;38.28;;;5.10;99.90;;;;;;5049214;28;20048;-73
2021/01/11 01:37:47;;;;;;;79.88;43.25;;;4.90;99.90;;;;;;5063183;28;20558;-73
2021/01/11 01:40:13;;;;;;;80.38;48.65;;;4.90;99.90;;;;;;5063367;28;20048;-72
2021/01/11 01:42:38;;;;;;;84.07;47.35;;;4.80;99.90;;;;;;5062834;28;20040;-70
2021/01/11 01:45:05;;;;;;;87.47;46.50;;;4.80;99.90;;;;;;5062780;28;20033;-71
2021/01/11 01:47:33;;;;;;;84.43;44.92;;;4.80;99.90;;;;;;5063073;28;20044;-71
2021/01/11 01:50:00;;;;;;;89.75;46.97;;;4.80;99.90;;;;;;5053224;28;20110;-70
2021/01/11 01:52:25;;;;;;;87.65;46.35;;;4.80;99.90;;;;;;5057842;28;20032;-72
2021/01/11 01:54:51;;;;;;;95.63;45.90;;;4.80;99.90;;;;;;5063416;28;20510;-71
2021/01/11 01:57:18;;;;;;;96.47;48.17;;;4.80;99.90;;;;;;5063594;28;20493;-70
2021/01/11 01:59:47;;;;;;;98.20;50.03;;;4.80;99.90;;;;;;5040960;28;20406;-72
2021/01/11 02:02:14;;;;;;;96.22;47.40;;;4.70;99.90;;;;;;5063705;28;20123;-70
2021/01/11 02:04:43;;;;;;;90.93;46.03;;;4.70;99.90;;;;;;5061749;28;20079;-70
2021/01/11 02:07:41;;;;;;;111.68;48.63;;;4.70;99.90;;;;;;5048460;28;20041;-71
2021/01/11 02:10:35;;;;;;;100.05;49.33;;;4.70;99.90;;;;;;5038067;28;20139;-72
2021/01/11 02:13:17;;;;;;;100.97;48.03;;;4.70;99.90;;;;;;5063184;28;20048;-71
2021/01/11 02:16:11;;;;;;;109.97;49.38;;;4.80;99.90;;;;;;5061283;28;20048;-71
2021/01/11 02:18:46;;;;;;;109.40;54.47;;;4.80;99.90;;;;;;5063530;28;20426;-73
2021/01/11 02:21:42;;;;;;;111.07;48.40;;;4.80;99.90;;;;;;5063613;28;20098;-72
2021/01/11 02:24:45;;;;;;;108.25;49.70;;;4.80;99.90;;;;;;5062126;28;20127;-71
2021/01/11 02:27:26;;;;;;;95.57;45.53;;;4.80;99.90;;;;;;5045227;28;20052;-72
2021/01/11 02:30:17;;;;;;;98.47;46.78;;;4.90;99.90;;;;;;5062129;28;20060;-71
2021/01/11 02:32:59;;;;;;;92.00;44.83;;;4.90;99.90;;;;;;5063246;28;20166;-70
2021/01/11 02:35:27;;;;;;;95.63;44.47;;;5.00;99.90;;;;;;5062257;28;20040;-72
2021/01/11 02:37:52;;;;;;;100.75;47.22;;;5.00;99.90;;;;;;5064337;28;20076;-71
2021/01/11 02:40:18;;;;;;;85.32;42.53;;;5.00;99.90;;;;;;5050856;28;20075;-72
2021/01/11 02:42:44;;;;;;;97.03;45.03;;;5.10;99.90;;;;;;5043228;28;20052;-70
2021/01/11 02:45:11;;;;;;;76.65;40.08;;;5.10;99.90;;;;;;5051447;28;20469;-72
2021/01/11 02:48:00;;;;;;;87.32;44.10;;;5.00;99.90;;;;;;5058700;28;20055;-72
2021/01/11 02:50:26;;;;;;;81.53;42.88;;;5.00;99.90;;;;;;5044256;28;20049;-73
2021/01/11 02:53:10;;;;;;;83.32;46.47;;;5.00;99.90;;;;;;5062169;28;20341;-70
2021/01/11 02:55:47;;;;;;;81.22;40.58;;;5.00;99.90;;;;;;5062178;28;20177;-73
2021/01/11 02:58:32;;;;;;;75.85;41.45;;;5.00;99.90;;;;;;5062535;28;20040;-70
2021/01/11 03:01:01;;;;;;;66.68;40.28;;;5.10;99.90;;;;;;5062346;28;20087;-73
2021/01/11 03:03:29;;;;;;;61.10;36.85;;;5.10;99.90;;;;;;5063050;28;20283;-73
2021/01/11 03:05:54;;;;;;;73.07;38.28;;;5.10;99.90;;;;;;5061631;28;20048;-72
2021/01/11 03:08:23;;;;;;;67.50;39.35;;;5.10;99.90;;;;;;5066799;28;20048;-73
2021/01/11 03:10:51;;;;;;;60.35;33.53;;;5.10;99.90;;;;;;5066987;28;20045;-71
2021/01/11 03:13:17;;;;;;;54.40;33.55;;;5.20;99.90;;;;;;5066186;28;20075;-72
2021/01/11 03:15:43;;;;;;;62.42;35.40;;;5.20;99.90;;;;;;5065485;28;20045;-70
2021/01/11 03:18:09;;;;;;;57.63;30.25;;;5.20;99.90;;;;;;5066045;28;20680;-71
2021/01/11 03:20:35;;;;;;;53.70;30.95;;;5.20;99.90;;;;;;5065849;28;20045;-71
2021/01/11 03:23:01;;;;;;;43.50;29.52;;;5.30;99.90;;;;;;5056843;28;20437;-72
2021/01/11 03:25:26;;;;;;;51.88;33.60;;;5.30;99.90;;;;;;5047352;28;20099;-71
2021/01/11 03:27:52;;;;;;;61.47;31.83;;;5.30;99.90;;;;;;5058531;28;20044;-71
2021/01/11 03:30:18;;;;;;;49.72;32.25;;;5.30;99.90;;;;;;5053855;28;20045;-71
2021/01/11 03:32:44;;;;;;;50.85;30.10;;;5.20;99.90;;;;;;5055762;28;20068;-72
2021/01/11 03:35:10;;;;;;;49.17;31.25;;;5.20;99.90;;;;;;5066230;28;20094;-71
2021/01/11 03:37:35;;;;;;;51.42;32.50;;;5.20;99.90;;;;;;5057459;28;20135;-72
2021/01/11 03:40:01;;;;;;;60.20;32.50;;;5.20;99.90;;;;;;5053782;28;20493;-72
2021/01/11 03:42:27;;;;;;;45.75;31.55;;;5.20;99.90;;;;;;5059298;28;20061;-71
2021/01/11 03:44:52;;;;;;;48.90;28.40;;;5.20;99.90;;;;;;5046556;28;20124;-71
2021/01/11 03:47:19;;;;;;;59.83;31.98;;;5.20;99.90;;;;;;5049658;28;20041;-71
2021/01/11 03:49:45;;;;;;;48.05;30.27;;;5.20;99.90;;;;;;5065961;28;20044;-71
2021/01/11 03:52:10;;;;;;;50.40;31.45;;;5.20;99.90;;;;;;5065469;28;20032;-71
2021/01/11 03:54:36;;;;;;;51.83;31.10;;;5.10;99.90;;;;;;5047715;28;20104;-71
2021/01/11 03:57:02;;;;;;;42.88;26.75;;;5.20;99.90;;;;;;5064757;28;20059;-71
2021/01/11 03:59:28;;;;;;;45.15;27.55;;;5.20;99.90;;;;;;5064769;28;20071;-70
2021/01/11 04:01:53;;;;;;;41.20;25.67;;;5.20;99.90;;;;;;5065814;28;20087;-72
2021/01/11 04:04:19;;;;;;;42.28;23.17;;;5.20;99.90;;;;;;5065302;28;20041;-71
2021/01/11 04:06:44;;;;;;;25.15;17.00;;;5.30;99.90;;;;;;5065580;28;20037;-70
2021/01/11 04:09:10;;;;;;;28.50;16.65;;;5.40;99.90;;;;;;5066437;28;20048;-70
2021/01/11 04:11:37;;;;;;;28.98;16.02;;;5.50;99.90;;;;;;5065479;28;20481;-71
2021/01/11 04:14:03;;;;;;;42.45;17.45;;;5.50;99.90;;;;;;5063739;28;20045;-70
2021/01/11 04:16:28;;;;;;;25.73;14.98;;;5.50;99.90;;;;;;5064819;28;20098;-70
2021/01/11 04:18:55;;;;;;;23.60;15.13;;;5.50;99.90;;;;;;5065561;28;20048;-71
2021/01/11 04:21:20;;;;;;;26.80;13.52;;;5.50;99.90;;;;;;5065449;28;20040;-70
2021/01/11 04:23:46;;;;;;;27.48;15.65;;;5.50;99.90;;;;;;5065839;28;20143;-72
2021/01/11 04:26:11;;;;;;;24.33;13.68;;;5.50;99.90;;;;;;5065028;28;20110;-70
2021/01/11 04:28:37;;;;;;;21.77;14.52;;;5.50;99.90;;;;;;5063859;28;20041;-70
2021/01/11 04:31:04;;;;;;;22.40;13.55;;;5.50;99.90;;;;;;5064620;28;20070;-70
2021/01/11 04:33:29;;;;;;;20.40;14.05;;;5.50;99.90;;;;;;5064438;28;20044;-71
2021/01/11 04:35:55;;;;;;;23.50;13.15;;;5.50;99.90;;;;;;5064981;28;20048;-71
2021/01/11 04:38:21;;;;;;;24.85;12.35;;;5.50;99.90;;;;;;5046355;28;20258;-72
2021/01/11 04:40:46;;;;;;;20.20;13.27;;;5.50;99.90;;;;;;5064822;28;20041;-72
2021/01/11 04:43:15;;;;;;;25.60;13.23;;;5.50;99.90;;;;;;5064702;28;20068;-72
2021/01/11 04:45:41;;;;;;;25.45;14.13;;;5.60;99.90;;;;;;5063879;28;20106;-71
2021/01/11 04:48:07;;;;;;;21.50;13.40;;;5.60;99.90;;;;;;5063572;28;20123;-71
2021/01/11 04:50:33;;;;;;;28.33;12.27;;;5.60;99.90;;;;;;5064957;28;20136;-71
2021/01/11 04:53:06;;;;;;;21.85;13.05;;;5.60;99.90;;;;;;5064537;28;20079;-70
2021/01/11 04:55:34;;;;;;;29.73;13.27;;;5.60;99.90;;;;;;5063857;28;20036;-73
2021/01/11 04:58:06;;;;;;;22.40;11.57;;;5.60;99.90;;;;;;5063499;28;20139;-71
2021/01/11 05:00:33;;;;;;;22.60;13.70;;;5.60;99.90;;;;;;5063794;28;20052;-71
2021/01/11 05:03:04;;;;;;;20.05;12.43;;;5.60;99.90;;;;;;5063819;28;20305;-71
2021/01/11 05:05:31;;;;;;;18.15;11.93;;;5.60;99.90;;;;;;5064715;28;20044;-70
2021/01/11 05:07:58;;;;;;;21.75;12.05;;;5.60;99.90;;;;;;5064344;28;20413;-70
2021/01/11 05:10:28;;;;;;;20.02;11.60;;;5.60;99.90;;;;;;5063499;28;20059;-71
2021/01/11 05:13:08;;;;;;;25.05;12.75;;;5.60;99.90;;;;;;5063882;28;20401;-71
2021/01/11 05:15:35;;;;;;;14.88;10.35;;;5.60;99.90;;;;;;5063597;28;20485;-71
2021/01/11 05:18:12;;;;;;;21.77;12.23;;;5.50;99.90;;;;;;5062890;28;20040;-72
2021/01/11 05:20:38;;;;;;;24.25;13.27;;;5.50;99.90;;;;;;5063842;28;20121;-71
2021/01/11 05:23:16;;;;;;;20.38;12.15;;;5.50;99.90;;;;;;5063316;28;20044;-71
2021/01/11 05:25:44;;;;;;;25.20;12.93;;;5.50;99.90;;;;;;5064247;28;20048;-71
2021/01/11 05:28:17;;;;;;;25.20;13.25;;;5.50;99.90;;;;;;5062846;28;20040;-71
2021/01/11 05:30:44;;;;;;;21.85;12.75;;;5.50;99.90;;;;;;5063328;28;20508;-71
2021/01/11 05:33:21;;;;;;;27.10;13.05;;;5.50;99.90;;;;;;5064297;28;20317;-72
2021/01/11 05:36:01;;;;;;;21.05;13.35;;;5.50;99.90;;;;;;5063823;28;20040;-71
2021/01/11 05:38:36;;;;;;;23.02;12.98;;;5.50;99.90;;;;;;5062983;28;20129;-71
2021/01/11 05:41:14;;;;;;;19.40;12.98;;;5.50;99.90;;;;;;5063886;28;20092;-72
2021/01/11 05:43:40;;;;;;;19.63;12.73;;;5.40;99.90;;;;;;5061678;28;20049;-71
2021/01/11 05:46:22;;;;;;;19.48;12.30;;;5.40;99.90;;;;;;5063666;28;20079;-72
2021/01/11 05:49:02;;;;;;;24.38;14.68;;;5.40;99.90;;;;;;5062531;28;20041;-72
2021/01/11 05:51:29;;;;;;;30.98;17.83;;;5.30;99.90;;;;;;5062865;28;20083;-72
2021/01/11 05:53:55;;;;;;;34.85;17.08;;;5.20;99.90;;;;;;5048700;28;20045;-72
2021/01/11 05:56:22;;;;;;;35.33;21.10;;;5.20;99.90;;;;;;5042918;28;20187;-71
2021/01/11 05:59:07;;;;;;;32.90;20.65;;;5.10;99.90;;;;;;5056897;28;20036;-69
2021/01/11 06:01:34;;;;;;;40.33;21.48;;;5.10;99.90;;;;;;5044252;28;20041;-71
2021/01/11 06:04:00;;;;;;;42.58;24.60;;;5.10;99.90;;;;;;5050410;28;20053;-71
2021/01/11 06:06:26;;;;;;;41.65;23.27;;;5.10;99.90;;;;;;5043172;28;20087;-72
2021/01/11 06:08:53;;;;;;;50.13;25.67;;;5.00;99.90;;;;;;5045615;28;20052;-71
2021/01/11 06:11:26;;;;;;;59.65;25.27;;;5.00;99.90;;;;;;5042615;28;20482;-70
2021/01/11 06:13:52;;;;;;;;;;;4.90;99.90;;;;;;5045731;28;20049;-71
2021/01/11 06:16:20;;;;;;;43.88;24.77;;;5.00;99.90;;;;;;5051803;28;20360;-71
2021/01/11 06:18:48;;;;;;;55.72;26.17;;;5.00;99.90;;;;;;5061889;28;20413;-72
2021/01/11 06:21:16;;;;;;;54.22;24.55;;;5.00;99.90;;;;;;5055506;28;20401;-70
2021/01/11 06:23:42;;;;;;;51.67;26.27;;;5.10;99.90;;;;;;5061661;28;20044;-71
2021/01/11 06:26:26;;;;;;;61.25;31.77;;;5.00;99.90;;;;;;5056268;28;20481;-71
2021/01/11 06:28:55;;;;;;;52.72;28.45;;;5.00;99.90;;;;;;5062287;28;20064;-74
2021/01/11 06:31:31;;;;;;;55.88;28.23;;;5.00;99.90;;;;;;5055171;28;20041;-70
2021/01/11 06:33:58;;;;;;;58.15;27.55;;;5.00;99.90;;;;;;5062415;28;20047;-71
2021/01/11 06:36:31;;;;;;;60.47;31.85;;;5.00;99.90;;;;;;5062042;28;20049;-71
2021/01/11 06:39:07;;;;;;;63.63;33.15;;;4.90;99.90;;;;;;5061508;28;20045;-70
2021/01/11 06:41:33;;;;;;;59.08;31.75;;;5.00;99.90;;;;;;5044605;28;20063;-71
2021/01/11 06:44:07;;;;;;;71.13;33.25;;;5.00;99.90;;;;;;5061210;28;20044;-71
2021/01/11 06:46:34;;;;;;;73.43;33.20;;;5.00;99.90;;;;;;5061847;28;20115;-71
2021/01/11 06:49:04;;;;;;;73.55;33.65;;;4.90;99.90;;;;;;5062840;28;20040;-70
2021/01/11 06:51:42;;;;;;;84.57;38.25;;;4.90;99.90;;;;;;5062111;28;20049;-71
2021/01/11 06:54:09;;;;;;;95.43;41.17;;;4.90;99.90;;;;;;5063405;28;20123;-71
2021/01/11 06:56:39;;;;;;;122.78;45.72;;;4.90;99.90;;;;;;5062112;28;20044;-71
2021/01/11 06:59:09;;;;;;;101.80;39.55;;;4.80;99.90;;;;;;5061114;28;20360;-71
2021/01/11 07:01:40;;;;;;;95.85;39.60;;;4.80;99.90;;;;;;5061969;28;20324;-71
2021/01/11 07:04:09;;;;;;;97.32;45.60;;;4.90;99.90;;;;;;5061996;28;20041;-69
2021/01/11 07:06:39;;;;;;;95.90;37.72;;;4.90;99.90;;;;;;5062166;28;20041;-70
2021/01/11 07:09:09;;;;;;;98.80;40.58;;;4.90;99.90;;;;;;5045269;28;20052;-71
2021/01/11 07:11:36;;;;;;;85.53;36.72;;;5.00;99.90;;;;;;5052723;28;20317;-70
2021/01/11 07:14:03;;;;;;;65.88;32.10;;;5.10;99.90;;;;;;5054315;28;20206;-71
2021/01/11 07:16:46;;;;;;;50.60;23.40;;;5.20;99.90;;;;;;5056713;28;20106;-70
2021/01/11 07:19:12;;;;;;;40.83;18.08;;;5.40;99.90;;;;;;5057523;28;20163;-70
2021/01/11 07:21:40;;;;;;;39.42;20.30;;;5.40;99.90;;;;;;5058469;28;20136;-71
2021/01/11 07:24:06;;;;;;;40.67;15.00;;;5.50;99.90;;;;;;5052994;28;20048;-73
2021/01/11 07:26:33;;;;;;;34.58;16.42;;;5.50;99.90;;;;;;5058599;28;20059;-71
2021/01/11 07:29:03;;;;;;;35.53;15.68;;;5.50;99.90;;;;;;5060788;28;20041;-70
2021/01/11 07:31:32;;;;;;;28.50;15.25;;;5.50;99.90;;;;;;5054679;28;20045;-71
2021/01/11 07:34:05;;;;;;;27.30;15.13;;;5.50;99.90;;;;;;5062656;28;20051;-71
2021/01/11 07:36:36;;;;;;;27.83;14.57;;;5.60;99.90;;;;;;5058347;28;20044;-71
2021/01/11 07:39:22;;;;;;;33.92;15.95;;;5.60;99.90;;;;;;5039544;28;20642;-70
2021/01/11 07:41:54;;;;;;;31.52;14.95;;;5.60;99.90;;;;;;5061705;28;20045;-71
2021/01/11 07:44:23;;;;;;;31.55;16.80;;;5.60;99.90;;;;;;5039347;28;20052;-71
2021/01/11 07:47:07;;;;;;;32.92;16.15;;;5.60;99.90;;;;;;5058247;28;20044;-70
2021/01/11 07:49:35;;;;;;;30.45;13.25;;;5.60;99.90;;;;;;5057074;28;20041;-72
2021/01/11 07:52:14;;;;;;;32.03;12.70;;;5.60;99.90;;;;;;5053408;28;20071;-71
2021/01/11 07:54:40;;;;;;;30.63;14.02;;;5.50;99.90;;;;;;5062492;28;20053;-71
2021/01/11 07:57:10;;;;;;;31.27;11.43;;;5.60;99.90;;;;;;5064355;28;20044;-70
2021/01/11 07:59:37;;;;;;;24.48;12.18;;;5.50;99.90;;;;;;5063546;28;20079;-71
2021/01/11 08:02:08;;;;;;;26.33;12.98;;;5.50;99.90;;;;;;5026467;28;20143;-71
2021/01/11 08:04:36;;;;;;;32.33;11.55;;;5.50;99.90;;;;;;5066197;28;20044;-70
2021/01/11 08:07:06;;;;;;;27.92;11.73;;;5.60;99.90;;;;;;5082971;28;20105;-71
2021/01/11 08:09:32;;;;;;;23.88;10.85;;;5.60;99.90;;;;;;5060535;28;20078;-71
2021/01/11 08:12:08;;;;;;;30.08;11.30;;;5.60;99.90;;;;;;5084150;28;20040;-71
2021/01/11 08:14:36;;;;;;;30.23;13.00;;;5.50;99.90;;;;;;5084428;28;20097;-71
2021/01/11 08:17:03;;;;;;;32.63;12.88;;;5.60;99.90;;;;;;5084741;28;20278;-71
2021/01/11 08:19:29;;;;;;;25.95;12.18;;;5.50;99.90;;;;;;5083638;28;20446;-71
2021/01/11 08:21:57;;;;;;;31.42;13.57;;;5.50;99.90;;;;;;5084102;28;20047;-72
2021/01/11 08:24:23;;;;;;;28.65;13.27;;;5.50;99.90;;;;;;5084561;28;20044;-72
2021/01/11 08:27:11;;;;;;;26.60;12.20;;;5.50;99.90;;;;;;5084385;28;20097;-70
2021/01/11 08:29:39;;;;;;;28.00;13.98;;;5.50;99.90;;;;;;5082043;28;20052;-71
2021/01/11 08:32:10;;;;;;;38.70;13.70;;;5.50;99.90;;;;;;5062562;28;20052;-71
2021/01/11 08:34:36;;;;;;;29.67;13.18;;;5.50;99.90;;;;;;5065577;28;20055;-70
2021/01/11 08:37:27;;;;;;;28.88;11.57;;;5.50;99.90;;;;;;5084111;28;20040;-71
2021/01/11 08:40:19;;;;;;;26.52;14.35;;;5.50;99.90;;;;;;5065929;28;20059;-71
2021/01/11 08:42:46;;;;;;;25.60;12.15;;;5.50;99.90;;;;;;5085073;28;20047;-72
2021/01/11 08:45:35;;;;;;;31.23;13.00;;;5.50;99.90;;;;;;5076599;28;20344;-71
2021/01/11 08:48:02;;;;;;;30.95;12.82;;;5.50;99.90;;;;;;5072326;28;20043;-71
2021/01/11 08:50:29;;;;;;;26.35;13.02;;;5.50;99.90;;;;;;5082017;28;20059;-70
2021/01/11 08:52:55;;;;;;;26.67;11.05;;;5.50;99.90;;;;;;5078539;28;20229;-71
2021/01/11 08:55:21;;;;;;;18.98;10.70;;;5.50;99.90;;;;;;5081718;28;20412;-71
2021/01/11 08:57:59;;;;;;;26.48;11.75;;;5.50;99.90;;;;;;5082559;28;20040;-72
2021/01/11 09:00:25;;;;;;;25.02;11.55;;;5.60;99.90;;;;;;5065614;28;20048;-72
2021/01/11 09:02:51;;;;;;;22.00;11.65;;;5.60;99.90;;;;;;5080657;28;20043;-72
2021/01/11 09:05:19;;;;;;;26.35;11.18;;;5.60;99.90;;;;;;5080346;28;20036;-71
2021/01/11 09:07:45;;;;;;;26.23;12.25;;;5.60;99.90;;;;;;5082364;28;20119;-71
2021/01/11 09:10:32;;;;;;;22.65;11.43;;;5.60;99.90;;;;;;5083560;28;20110;-71
2021/01/11 09:13:25;;;;;;;28.85;12.40;;;5.60;99.90;;;;;;5082164;28;20127;-71
2021/01/11 09:15:51;;;;;;;25.92;12.43;;;5.60;99.90;;;;;;5074405;28;20036;-71
2021/01/11 09:18:17;;;;;;;25.27;12.77;;;5.60;99.90;;;;;;5083917;28;20048;-70
2021/01/11 09:20:44;;;;;;;22.65;11.27;;;5.60;99.90;;;;;;5082547;28;20040;-72
2021/01/11 09:23:12;;;;;;;21.95;10.73;;;5.60;99.90;;;;;;5082552;28;20036;-72
2021/01/11 09:25:39;;;;;;;21.77;9.85;;;5.60;99.90;;;;;;5083130;28;20052;-72
2021/01/11 09:28:06;;;;;;;21.52;8.68;;;5.60;99.90;;;;;;5082364;28;20408;-69
2021/01/11 09:30:32;;;;;;;21.02;8.30;;;5.70;99.90;;;;;;5082822;28;20086;-69
2021/01/11 09:32:58;;;;;;;18.30;7.95;;;5.70;99.90;;;;;;5081934;28;20082;-72
2021/01/11 09:35:25;;;;;;;17.13;6.32;;;5.80;99.90;;;;;;5083298;28;20101;-72
2021/01/11 09:37:52;;;;;;;12.88;5.95;;;5.90;99.90;;;;;;5064388;28;20070;-73
2021/01/11 09:40:20;;;;;;;14.98;7.47;;;5.90;99.90;;;;;;5082026;28;20195;-70
2021/01/11 09:42:47;;;;;;;12.50;5.60;;;5.80;99.90;;;;;;5082024;28;20100;-72
2021/01/11 09:45:13;;;;;;;17.60;5.15;;;5.80;99.90;;;;;;5064266;28;20041;-72
2021/01/11 09:47:40;;;;;;;12.40;4.88;;;5.90;99.90;;;;;;5082227;28;20527;-72
2021/01/11 09:50:08;;;;;;;20.42;5.32;;;5.90;99.90;;;;;;5083082;28;20653;-72
2021/01/11 09:52:34;;;;;;;20.05;5.47;;;5.90;99.90;;;;;;5097870;28;20056;-72
2021/01/11 09:54:59;;;;;;;17.10;5.32;;;5.90;99.90;;;;;;5082759;28;20188;-71
2021/01/11 09:57:25;;;;;;;11.65;4.28;;;5.90;99.90;;;;;;5082124;28;20085;-71
2021/01/11 09:59:51;;;;;;;14.48;4.30;;;5.90;99.90;;;;;;5082247;28;20070;-71
2021/01/11 10:02:16;;;;;;;11.35;3.85;;;5.90;99.90;;;;;;5082124;28;20036;-71
2021/01/11 10:04:42;;;;;;;12.57;3.85;;;6.00;99.90;;;;;;5074281;28;20044;-70
2021/01/11 10:07:08;;;;;;;13.70;4.22;;;6.00;99.90;;;;;;5083151;28;20484;-71
2021/01/11 10:09:34;;;;;;;12.18;4.30;;;6.10;99.90;;;;;;5063240;28;20062;-71
2021/01/11 10:12:05;;;;;;;12.57;3.70;;;6.10;99.90;;;;;;5082302;28;20448;-71
2021/01/11 10:14:31;;;;;;;13.20;2.83;;;6.20;99.90;;;;;;5081803;28;20085;-71
2021/01/11 10:16:57;;;;;;;20.00;4.63;;;6.20;99.90;;;;;;5082784;28;20040;-71
2021/01/11 10:19:28;;;;;;;10.63;3.72;;;6.30;99.90;;;;;;5082493;28;20489;-71
2021/01/11 10:21:54;;;;;;;12.25;3.25;;;6.30;99.90;;;;;;5063713;28;20083;-71
2021/01/11 10:24:23;;;;;;;10.43;3.95;;;6.30;99.90;;;;;;5064601;28;20052;-72
2021/01/11 10:26:50;;;;;;;19.15;3.28;;;6.30;99.90;;;;;;5082758;28;20560;-71
2021/01/11 10:29:16;;;;;;;10.75;2.88;;;6.30;99.90;;;;;;5081425;28;20093;-71
2021/01/11 10:31:44;;;;;;;14.90;2.55;;;6.40;99.90;;;;;;5081717;28;20068;-72
2021/01/11 10:34:10;;;;;;;10.52;2.85;;;6.40;99.90;;;;;;5082391;28;20036;-71
2021/01/11 10:36:47;;;;;;;8.50;2.67;;;6.40;99.90;;;;;;5081165;28;20568;-71
2021/01/11 10:39:14;;;;;;;12.35;2.28;;;6.40;99.90;;;;;;5082004;28;20048;-71
2021/01/11 10:41:40;;;;;;;9.88;2.70;;;6.40;99.90;;;;;;5081633;28;20076;-70
2021/01/11 10:44:07;;;;;;;10.10;2.65;;;6.40;99.90;;;;;;5081211;28;20048;-72
2021/01/11 10:46:33;;;;;;;6.88;2.85;;;6.40;99.90;;;;;;5080976;28;20511;-71
2021/01/11 10:48:59;;;;;;;7.93;2.38;;;6.40;99.90;;;;;;5082406;28;20052;-70
2021/01/11 10:51:25;;;;;;;6.68;1.92;;;6.50;99.90;;;;;;5082560;28;20044;-72
2021/01/11 10:53:51;;;;;;;10.18;2.78;;;6.50;99.90;;;;;;5082995;28;20046;-72
2021/01/11 10:56:17;;;;;;;12.00;2.17;;;6.50;99.90;;;;;;5062669;28;20507;-72
2021/01/11 10:58:43;;;;;;;6.57;1.77;;;6.50;99.90;;;;;;5080382;28;20296;-71
2021/01/11 11:01:12;;;;;;;8.32;2.92;;;6.60;99.90;;;;;;5081061;28;20036;-72
2021/01/11 11:03:37;;;;;;;9.07;2.05;;;6.60;99.90;;;;;;5081330;28;20452;-72
2021/01/11 11:06:03;;;;;;;11.75;2.25;;;6.70;99.90;;;;;;5082105;28;20119;-72
2021/01/11 11:08:29;;;;;;;12.15;2.42;;;6.60;99.90;;;;;;5080736;28;20059;-72
2021/01/11 11:10:55;;;;;;;11.55;2.13;;;6.60;99.90;;;;;;5082375;28;20044;-71
2021/01/11 11:13:20;;;;;;;9.57;1.90;;;6.70;99.90;;;;;;5081094;28;20189;-73
2021/01/11 11:15:47;;;;;;;9.05;1.88;;;6.70;99.90;;;;;;5081654;28;20087;-72
2021/01/11 11:18:13;;;;;;;9.13;1.88;;;6.70;99.90;;;;;;5064062;28;20048;-72
2021/01/11 11:20:40;;;;;;;4.70;1.77;;;6.80;99.90;;;;;;5062123;28;20040;-71
2021/01/11 11:23:06;;;;;;;6.82;1.70;;;6.70;99.90;;;;;;5082870;28;20105;-71
2021/01/11 11:25:32;;;;;;;11.45;2.58;;;6.70;99.90;;;;;;5063851;28;20040;-73
2021/01/11 11:27:58;;;;;;;10.65;3.28;;;6.70;99.90;;;;;;5085124;28;20036;-72
2021/01/11 11:30:24;;;;;;;11.13;1.90;;;6.70;99.90;;;;;;5084050;28;20481;-72
2021/01/11 11:32:52;;;;;;;8.02;1.95;;;6.70;99.90;;;;;;5075532;28;20413;-73
2021/01/11 11:35:18;;;;;;;4.93;2.40;;;6.70;99.90;;;;;;5065737;28;20127;-72
2021/01/11 11:37:45;;;;;;;8.48;3.13;;;6.70;99.90;;;;;;5082239;28;20088;-72
2021/01/11 11:40:12;;;;;;;10.68;3.63;;;6.80;99.90;;;;;;5085683;28;20289;-72
2021/01/11 11:42:39;;;;;;;10.38;2.72;;;6.70;99.90;;;;;;5083764;28;20101;-72
2021/01/11 11:45:08;;;;;;;7.57;2.10;;;6.70;99.90;;;;;;5074078;28;20094;-73
2021/01/11 11:47:35;;;;;;;6.90;2.47;;;6.70;99.90;;;;;;5076640;28;20122;-72
2021/01/11 11:50:02;;;;;;;8.73;2.28;;;6.70;99.90;;;;;;5085566;28;20153;-72
2021/01/11 11:52:28;;;;;;;5.68;2.40;;;6.60;99.90;;;;;;5084903;28;20044;-71
2021/01/11 11:54:54;;;;;;;4.93;1.80;;;6.60;99.90;;;;;;5085003;28;20443;-72
2021/01/11 11:57:20;;;;;;;11.48;3.20;;;6.60;99.90;;;;;;5084141;28;20115;-73
2021/01/11 11:59:48;;;;;;;6.72;2.47;;;6.60;99.90;;;;;;5085332;28;20563;-73
2021/01/11 12:02:14;;;;;;;8.27;2.50;;;6.60;99.90;;;;;;5086151;28;20282;-72
2021/01/11 12:04:40;;;;;;;9.02;2.20;;;6.50;99.90;;;;;;5084510;28;20177;-72
2021/01/11 12:07:06;;;;;;;8.13;2.28;;;6.50;99.90;;;;;;5085419;28;20139;-73
2021/01/11 12:09:32;;;;;;;11.30;2.65;;;6.50;99.90;;;;;;5066319;28;20035;-71
2021/01/11 12:11:59;;;;;;;9.35;2.53;;;6.50;99.90;;;;;;5085115;28;20115;-71
2021/01/11 12:14:25;;;;;;;11.02;2.50;;;6.60;99.90;;;;;;5083057;28;20040;-72
2021/01/11 12:16:51;;;;;;;9.13;2.90;;;6.50;99.90;;;;;;5085458;28;20048;-72
2021/01/11 12:19:17;;;;;;;9.73;2.30;;;6.60;99.90;;;;;;5084219;28;20068;-71
2021/01/11 12:21:44;;;;;;;9.02;2.78;;;6.60;99.90;;;;;;5083970;28;20055;-72
2021/01/11 12:24:10;;;;;;;7.20;2.67;;;6.60;99.90;;;;;;5084723;28;20074;-71
2021/01/11 12:26:48;;;;;;;5.93;2.35;;;6.60;99.90;;;;;;5084454;28;20366;-71
2021/01/11 12:29:14;;;;;;;8.50;2.45;;;6.60;99.90;;;;;;5083142;28;20048;-71
2021/01/11 12:31:41;;;;;;;9.48;2.83;;;6.60;99.90;;;;;;5083724;28;20079;-73
2021/01/11 12:34:07;;;;;;;12.95;3.75;;;6.60;99.90;;;;;;5085066;28;20036;-70
2021/01/11 12:36:35;;;;;;;11.23;3.00;;;6.60;99.90;;;;;;5083399;28;20119;-71
2021/01/11 12:39:10;;;;;;;9.90;2.70;;;6.60;99.90;;;;;;5083413;28;20048;-72
2021/01/11 12:41:37;;;;;;;11.57;3.17;;;6.70;99.90;;;;;;5083485;28;20404;-71
2021/01/11 12:44:08;;;;;;;8.93;3.42;;;6.70;99.90;;;;;;5083380;28;20040;-73
2021/01/11 12:46:33;;;;;;;12.52;3.00;;;6.70;99.90;;;;;;5066217;28;20047;-72
2021/01/11 12:48:59;;;;;;;11.98;3.50;;;6.80;99.90;;;;;;5081441;28;20028;-72